Time;durP1;ratioP1;P1;durP2;ratioP2;P2;SDS_P1;SDS_P2;PMS_P1;PMS_P2;Temp;Humidity;BMP_temperature;BMP_pressure;BME280_temperature;BME280_humidity;BME280_pressure;Samples;Min_cycle;Max_cycle;Signal;HPM_P1;HPM_P2
2021/09/06 00:01:35;;;;;;;4.97;2.83;;;15.00;73.30;;;;;;5023186;28;95427;-77
2021/09/06 00:04:06;;;;;;;6.07;2.83;;;15.00;73.20;;;;;;5027943;28;96044;-74
2021/09/06 00:06:41;;;;;;;7.10;3.10;;;15.10;73.50;;;;;;5029873;28;95842;-73
2021/09/06 00:09:12;;;;;;;5.35;3.03;;;15.10;73.50;;;;;;5034548;28;95804;-74
2021/09/06 00:11:43;;;;;;;8.70;3.75;;;15.10;73.30;;;;;;5028565;28;96573;-74
2021/09/06 00:14:14;;;;;;;8.23;2.83;;;15.10;73.40;;;;;;5030941;28;95413;-75
2021/09/06 00:16:46;;;;;;;7.45;2.20;;;15.20;73.50;;;;;;5013759;28;95765;-74
2021/09/06 00:19:17;;;;;;;5.05;2.88;;;15.20;73.60;;;;;;5014098;28;95929;-76
2021/09/06 00:21:47;;;;;;;8.00;2.47;;;15.20;73.90;;;;;;5019398;28;95355;-73
2021/09/06 00:24:21;;;;;;;8.82;2.83;;;15.20;73.70;;;;;;5011443;28;95958;-77
2021/09/06 00:26:52;;;;;;;5.40;2.75;;;15.30;74.00;;;;;;5003889;28;96021;-72
2021/09/06 00:29:22;;;;;;;6.73;2.53;;;15.30;74.40;;;;;;5010473;28;98685;-71
2021/09/06 00:31:52;;;;;;;5.68;2.70;;;15.40;74.20;;;;;;4995341;28;95216;-71
2021/09/06 00:34:22;;;;;;;9.55;2.67;;;15.40;74.10;;;;;;4991260;28;95247;-74
2021/09/06 00:36:53;;;;;;;5.13;2.50;;;15.50;74.10;;;;;;4992881;28;95964;-74
2021/09/06 00:39:24;;;;;;;6.43;2.67;;;15.60;74.30;;;;;;4986332;28;98206;-74
2021/09/06 00:41:55;;;;;;;10.27;3.13;;;15.60;74.50;;;;;;4991940;28;95926;-75
2021/09/06 00:44:26;;;;;;;4.45;2.17;;;15.70;74.10;;;;;;4985938;28;95378;-74
2021/09/06 00:47:00;;;;;;;4.78;2.30;;;15.80;74.20;;;;;;4985760;28;95361;-74
2021/09/06 00:49:31;;;;;;;5.05;2.85;;;15.80;74.30;;;;;;4986730;28;98418;-73
2021/09/06 00:52:03;;;;;;;5.30;2.38;;;15.80;74.20;;;;;;4990425;28;95773;-73
2021/09/06 00:54:36;;;;;;;6.85;2.03;;;15.90;73.90;;;;;;5002710;28;96440;-75
2021/09/06 00:57:07;;;;;;;7.47;2.10;;;16.00;73.60;;;;;;4988468;28;95921;-72
2021/09/06 00:59:39;;;;;;;7.05;2.10;;;16.10;73.80;;;;;;4990655;28;96667;-73
2021/09/06 01:02:13;;;;;;;4.80;1.83;;;16.10;74.00;;;;;;4995763;28;97103;-75
2021/09/06 01:04:46;;;;;;;7.43;2.00;;;16.30;74.40;;;;;;5011230;28;96088;-74
2021/09/06 01:07:51;;;;;;;4.15;1.85;;;16.30;74.20;;;;;;4934335;28;95864;-70
2021/09/06 01:10:33;;;;;;;6.60;2.53;;;16.50;74.30;;;;;;5002742;28;98066;-71
2021/09/06 01:13:25;;;;;;;2.67;2.17;;;16.60;74.10;;;;;;5007798;28;96450;-75
2021/09/06 01:15:55;;;;;;;;;;;16.70;74.00;;;;;;5004716;28;95557;-73
2021/09/06 01:18:28;;;;;;;4.40;2.03;;;16.70;73.80;;;;;;4978562;28;95446;-74
2021/09/06 01:21:01;;;;;;;3.75;1.85;;;16.90;74.10;;;;;;5004143;28;98125;-72
2021/09/06 01:23:51;;;;;;;3.75;1.83;;;17.00;74.10;;;;;;5008074;28;96395;-74
2021/09/06 01:26:28;;;;;;;4.18;1.90;;;17.10;73.80;;;;;;4996759;28;95890;-74
2021/09/06 01:29:00;;;;;;;2.72;1.67;;;17.20;73.60;;;;;;5006743;28;95632;-73
2021/09/06 01:31:33;;;;;;;7.20;1.90;;;17.30;73.30;;;;;;4990760;28;96157;-76
2021/09/06 01:34:04;;;;;;;2.78;1.52;;;17.40;72.80;;;;;;5002622;28;97272;-74
2021/09/06 01:36:36;;;;;;;3.83;1.98;;;17.50;72.50;;;;;;5007553;28;95818;-73
2021/09/06 01:39:07;;;;;;;5.28;1.92;;;17.60;72.20;;;;;;5005891;28;96383;-73
2021/09/06 01:41:39;;;;;;;6.68;1.88;;;17.70;72.20;;;;;;5003049;28;96454;-75
2021/09/06 01:44:13;;;;;;;3.95;1.30;;;17.80;71.80;;;;;;5006494;28;97638;-76
2021/09/06 01:46:46;;;;;;;5.50;2.28;;;17.90;71.60;;;;;;5002345;28;95978;-74
2021/09/06 01:49:22;;;;;;;2.58;1.38;;;18.00;71.40;;;;;;4982236;28;95532;-74
2021/09/06 01:51:54;;;;;;;3.85;1.63;;;18.00;71.10;;;;;;5004717;28;95668;-74
2021/09/06 01:54:25;;;;;;;5.10;1.67;;;18.10;70.90;;;;;;5004801;28;99117;-75
2021/09/06 01:56:57;;;;;;;6.50;2.60;;;18.20;70.70;;;;;;5002385;28;95904;-75
2021/09/06 01:59:27;;;;;;;6.57;2.80;;;18.20;66.80;;;;;;5020212;28;95509;-77
2021/09/06 02:01:58;;;;;;;;;;;18.20;67.00;;;;;;5006447;28;96227;-75
2021/09/06 02:04:38;;;;;;;7.68;2.50;;;18.20;66.60;;;;;;5007859;28;96438;-76
2021/09/06 02:07:09;;;;;;;12.27;3.17;;;18.20;66.10;;;;;;5004236;28;95833;-74
2021/09/06 02:09:42;;;;;;;6.70;2.55;;;18.20;65.40;;;;;;5024178;28;95337;-72
2021/09/06 02:12:15;;;;;;;6.70;2.35;;;18.30;65.80;;;;;;5003344;28;98883;-72
2021/09/06 02:14:50;;;;;;;6.47;2.55;;;18.40;66.30;;;;;;5008949;28;96821;-75
2021/09/06 02:17:23;;;;;;;6.88;2.25;;;18.50;66.70;;;;;;4997951;28;95886;-73
2021/09/06 02:19:57;;;;;;;7.03;1.98;;;18.70;66.20;;;;;;5006850;28;95683;-73
2021/09/06 02:22:26;;;;;;;5.85;2.28;;;18.90;66.10;;;;;;4993820;28;98714;-73
2021/09/06 02:25:03;;;;;;;6.95;2.05;;;19.20;66.10;;;;;;5001205;28;97791;-73
2021/09/06 02:27:37;;;;;;;6.80;2.80;;;19.30;65.80;;;;;;5028051;28;96027;-74
2021/09/06 02:30:14;;;;;;;5.45;2.03;;;19.50;65.70;;;;;;5001509;28;96069;-72
2021/09/06 02:32:45;;;;;;;3.03;1.80;;;19.70;65.50;;;;;;5004458;28;104593;-73
2021/09/06 02:35:16;;;;;;;4.28;1.80;;;19.90;65.20;;;;;;5005997;28;95316;-73
2021/09/06 02:37:48;;;;;;;5.30;2.53;;;20.00;65.20;;;;;;5008936;28;97082;-72
2021/09/06 02:40:20;;;;;;;5.90;1.75;;;20.20;64.90;;;;;;5011046;28;95312;-72
2021/09/06 02:42:51;;;;;;;6.57;2.50;;;20.30;65.50;;;;;;5008485;28;95871;-73
2021/09/06 02:45:21;;;;;;;5.47;2.92;;;20.40;60.70;;;;;;5019581;28;95584;-75
2021/09/06 02:47:57;;;;;;;8.85;2.70;;;20.40;60.70;;;;;;4997127;28;95290;-76
2021/09/06 02:50:31;;;;;;;6.82;3.20;;;20.30;59.60;;;;;;4995074;28;95999;-76
2021/09/06 02:53:06;;;;;;;6.25;2.67;;;20.30;59.30;;;;;;5006321;28;96530;-76
2021/09/06 02:55:39;;;;;;;11.75;3.58;;;20.30;59.80;;;;;;5006095;28;95799;-75
2021/09/06 02:58:10;;;;;;;11.40;2.95;;;20.30;59.90;;;;;;5001518;28;95930;-72
2021/09/06 03:00:41;;;;;;;7.93;2.50;;;20.20;60.60;;;;;;4989585;28;95955;-74
2021/09/06 03:03:13;;;;;;;5.70;2.30;;;20.10;59.60;;;;;;5001983;28;98343;-73
2021/09/06 03:05:46;;;;;;;6.68;3.33;;;20.10;59.20;;;;;;5007463;28;97663;-75
2021/09/06 03:08:20;;;;;;;8.32;2.53;;;20.10;59.10;;;;;;5005242;28;96151;-75
2021/09/06 03:10:51;;;;;;;8.98;2.58;;;19.90;58.10;;;;;;5005652;28;96187;-73
2021/09/06 03:13:23;;;;;;;13.70;2.90;;;19.90;58.10;;;;;;5001684;28;98095;-73
2021/09/06 03:15:54;;;;;;;9.93;3.75;;;19.80;57.30;;;;;;4994613;28;97452;-75
2021/09/06 03:18:25;;;;;;;12.30;3.20;;;19.70;57.40;;;;;;4989832;28;95904;-75
2021/09/06 03:21:16;;;;;;;10.27;3.20;;;19.60;57.70;;;;;;5004661;28;95996;-71
2021/09/06 03:23:48;;;;;;;11.27;4.45;;;19.60;56.90;;;;;;5004304;28;97990;-74
2021/09/06 03:26:22;;;;;;;11.68;3.60;;;19.50;57.00;;;;;;4998861;28;95801;-75
2021/09/06 03:28:53;;;;;;;12.43;4.10;;;19.40;57.10;;;;;;5002464;28;95797;-74
2021/09/06 03:31:24;;;;;;;13.20;5.25;;;19.30;57.30;;;;;;4999588;28;95310;-74
2021/09/06 03:33:56;;;;;;;11.32;4.47;;;19.30;57.80;;;;;;5002052;28;96621;-73
2021/09/06 03:36:26;;;;;;;9.63;3.53;;;19.20;58.10;;;;;;5004139;28;96198;-74
2021/09/06 03:38:57;;;;;;;14.80;4.00;;;19.20;58.00;;;;;;5000846;28;95323;-74
2021/09/06 03:41:33;;;;;;;8.43;3.45;;;19.20;58.00;;;;;;5001942;28;95745;-74
2021/09/06 03:44:03;;;;;;;15.13;4.13;;;19.20;57.90;;;;;;5000470;28;98305;-74
2021/09/06 03:46:34;;;;;;;13.05;3.55;;;19.20;57.50;;;;;;4989148;28;97655;-76
2021/09/06 03:49:07;;;;;;;9.32;3.17;;;19.20;57.20;;;;;;4990679;28;95780;-75
2021/09/06 03:51:40;;;;;;;12.85;3.45;;;19.10;57.10;;;;;;4990922;28;95812;-76
2021/09/06 03:54:17;;;;;;;11.18;3.30;;;19.10;57.40;;;;;;4990380;28;96974;-76
2021/09/06 03:56:48;;;;;;;7.05;3.17;;;19.10;57.80;;;;;;4992682;28;97132;-72
2021/09/06 03:59:19;;;;;;;8.40;2.92;;;19.10;57.60;;;;;;4993650;28;96165;-75
2021/09/06 04:01:53;;;;;;;11.60;3.28;;;19.00;57.70;;;;;;4996503;28;97178;-75
2021/09/06 04:04:25;;;;;;;10.65;3.15;;;19.10;57.90;;;;;;5001802;28;98353;-77
2021/09/06 04:06:57;;;;;;;13.57;2.78;;;19.00;57.90;;;;;;5008618;28;97541;-73
2021/09/06 04:09:37;;;;;;;9.70;3.15;;;19.00;58.00;;;;;;5007053;28;95823;-75
2021/09/06 04:12:09;;;;;;;14.18;3.35;;;19.00;58.40;;;;;;5004877;28;95379;-74
2021/09/06 04:14:41;;;;;;;16.35;3.88;;;18.90;58.30;;;;;;5006063;28;96367;-74
2021/09/06 04:17:12;;;;;;;11.88;2.60;;;18.90;58.40;;;;;;4995259;28;100368;-75
2021/09/06 04:19:45;;;;;;;12.32;3.00;;;18.90;58.20;;;;;;4990049;28;96283;-74
2021/09/06 04:22:16;;;;;;;9.77;3.50;;;18.90;58.10;;;;;;5003348;28;96180;-74
2021/09/06 04:24:49;;;;;;;9.80;2.67;;;18.90;58.00;;;;;;5005133;28;98440;-75
2021/09/06 04:27:20;;;;;;;11.55;3.13;;;18.90;57.90;;;;;;5003710;28;97976;-76
2021/09/06 04:29:51;;;;;;;11.32;3.35;;;18.90;58.00;;;;;;5005447;28;96008;-77
2021/09/06 04:32:22;;;;;;;10.90;3.55;;;18.90;57.70;;;;;;4986746;28;95914;-75
2021/09/06 04:34:53;;;;;;;10.27;3.05;;;18.90;57.60;;;;;;4992693;28;97227;-74
2021/09/06 04:37:24;;;;;;;10.88;3.53;;;18.90;57.60;;;;;;4973429;28;95960;-77
2021/09/06 04:39:54;;;;;;;11.68;3.15;;;18.90;57.80;;;;;;4992312;28;96715;-75
2021/09/06 04:42:24;;;;;;;13.75;3.38;;;18.90;57.70;;;;;;4977807;28;95719;-76
2021/09/06 04:44:58;;;;;;;10.70;2.63;;;18.90;57.80;;;;;;4994035;28;98828;-79
2021/09/06 04:47:29;;;;;;;9.15;3.40;;;18.90;57.70;;;;;;4984689;28;97271;-77
2021/09/06 04:50:00;;;;;;;10.52;3.85;;;18.90;57.90;;;;;;5009115;28;95749;-77
2021/09/06 04:52:33;;;;;;;9.65;3.40;;;18.90;57.40;;;;;;5006743;28;96378;-74
2021/09/06 04:55:07;;;;;;;8.95;2.78;;;18.90;57.20;;;;;;4988522;28;98690;-73
2021/09/06 04:57:48;;;;;;;11.75;3.22;;;18.90;57.20;;;;;;5006207;28;95325;-73
2021/09/06 05:00:20;;;;;;;8.93;2.55;;;18.90;57.00;;;;;;4998943;28;95858;-73
2021/09/06 05:02:54;;;;;;;11.80;2.88;;;18.90;57.00;;;;;;5002644;28;95669;-75
2021/09/06 05:05:28;;;;;;;8.73;2.92;;;18.90;56.90;;;;;;5006524;28;96052;-73
2021/09/06 05:07:59;;;;;;;12.98;3.05;;;18.90;56.80;;;;;;5002155;27;98014;-73
2021/09/06 05:10:32;;;;;;;;;;;18.90;57.30;;;;;;4989444;28;96233;-78
2021/09/06 05:13:03;;;;;;;12.05;2.67;;;18.90;57.40;;;;;;5010522;28;96126;-75
2021/09/06 05:15:36;;;;;;;10.27;3.33;;;18.90;57.30;;;;;;4994738;28;98564;-76
2021/09/06 05:18:08;;;;;;;9.88;3.10;;;19.00;57.30;;;;;;4996638;28;95384;-77
2021/09/06 05:20:41;;;;;;;12.73;2.58;;;19.00;56.40;;;;;;5000216;28;96250;-75
2021/09/06 05:23:11;;;;;;;13.20;3.42;;;19.00;56.50;;;;;;4999853;28;96107;-77
2021/09/06 05:25:43;;;;;;;12.15;3.35;;;19.00;56.60;;;;;;5000905;28;98589;-78
2021/09/06 05:28:15;;;;;;;9.95;2.75;;;18.90;56.20;;;;;;4996297;28;96827;-78
2021/09/06 05:30:45;;;;;;;12.88;3.13;;;18.90;56.00;;;;;;4999636;28;95764;-77
2021/09/06 05:33:15;;;;;;;13.68;3.30;;;18.90;56.20;;;;;;5001940;28;95674;-77
2021/09/06 05:35:50;;;;;;;10.10;3.22;;;18.90;56.50;;;;;;5009362;28;98112;-79
2021/09/06 05:38:21;;;;;;;13.90;2.78;;;18.90;56.40;;;;;;5003392;28;97590;-77
2021/09/06 05:41:20;;;;;;;12.20;2.60;;;18.90;56.60;;;;;;5003012;28;95862;-76
2021/09/06 05:43:51;;;;;;;10.98;3.10;;;18.90;56.10;;;;;;4987446;28;95981;-76
2021/09/06 05:46:23;;;;;;;10.18;2.80;;;18.90;56.20;;;;;;5001814;28;95839;-76
2021/09/06 05:48:53;;;;;;;13.48;2.85;;;18.90;56.20;;;;;;5006412;28;95773;-73
2021/09/06 05:51:26;;;;;;;6.78;2.67;;;18.90;56.20;;;;;;5002594;28;95787;-74
2021/09/06 05:54:04;;;;;;;12.00;3.58;;;18.90;56.10;;;;;;5005661;28;95784;-83
2021/09/06 05:56:36;;;;;;;13.50;2.80;;;18.90;56.90;;;;;;5018271;28;97250;-74
2021/09/06 05:59:07;;;;;;;8.60;2.60;;;18.90;56.20;;;;;;5003002;28;95976;-74
2021/09/06 06:01:40;;;;;;;10.20;3.35;;;18.80;56.50;;;;;;4998779;28;96485;-81
2021/09/06 06:04:11;;;;;;;12.23;3.10;;;18.80;57.40;;;;;;5018398;28;96091;-81
2021/09/06 06:06:47;;;;;;;11.05;3.08;;;18.80;57.30;;;;;;5001112;28;99019;-73
2021/09/06 06:09:19;;;;;;;12.25;3.75;;;18.80;56.80;;;;;;5001398;28;97812;-73
2021/09/06 06:11:50;;;;;;;9.32;2.80;;;18.80;56.30;;;;;;5001016;28;96043;-73
2021/09/06 06:14:28;;;;;;;12.48;3.80;;;18.80;55.90;;;;;;5020474;28;96115;-73
2021/09/06 06:16:59;;;;;;;12.60;3.38;;;18.80;55.20;;;;;;4991694;28;97179;-73
2021/09/06 06:19:38;;;;;;;11.60;4.05;;;18.80;55.70;;;;;;4999695;28;95988;-74
2021/09/06 06:22:27;;;;;;;15.18;4.65;;;18.80;55.70;;;;;;5002019;28;95534;-73
2021/09/06 06:25:15;;;;;;;11.63;3.50;;;18.80;55.70;;;;;;5001770;28;96675;-74
2021/09/06 06:27:54;;;;;;;10.90;3.85;;;18.80;56.10;;;;;;5002638;28;96211;-75
2021/09/06 06:30:26;;;;;;;10.05;3.25;;;18.80;56.10;;;;;;5002014;28;97752;-74
2021/09/06 06:32:56;;;;;;;;;;;18.80;55.90;;;;;;5001959;28;98633;-75
2021/09/06 06:35:38;;;;;;;11.40;3.55;;;18.80;56.10;;;;;;5006587;28;95633;-73
2021/09/06 06:38:08;;;;;;;9.65;3.15;;;18.80;55.50;;;;;;5001252;28;96711;-74
2021/09/06 06:40:46;;;;;;;7.93;2.90;;;18.80;55.60;;;;;;5002604;28;96939;-76
2021/09/06 06:43:20;;;;;;;12.18;3.53;;;18.80;56.00;;;;;;5003824;28;95690;-76
2021/09/06 06:46:11;;;;;;;12.75;3.88;;;18.90;56.40;;;;;;4998433;28;95418;-75
2021/09/06 06:48:42;;;;;;;9.80;3.80;;;18.90;56.10;;;;;;5009435;28;97841;-75
2021/09/06 06:51:28;;;;;;;12.23;3.60;;;18.90;55.80;;;;;;4987893;28;95782;-76
2021/09/06 06:54:00;;;;;;;11.07;4.30;;;18.80;55.80;;;;;;5006051;28;95845;-74
2021/09/06 06:56:35;;;;;;;12.05;3.90;;;18.80;56.00;;;;;;5002741;28;95819;-75
2021/09/06 06:59:09;;;;;;;12.57;3.95;;;18.80;56.10;;;;;;5023882;28;96873;-77
2021/09/06 07:01:41;;;;;;;12.45;4.10;;;18.80;56.30;;;;;;4992071;28;97068;-74
2021/09/06 07:04:13;;;;;;;13.13;3.83;;;18.80;56.50;;;;;;4991780;28;95903;-75
2021/09/06 07:06:45;;;;;;;;;;;18.80;56.40;;;;;;4992650;28;95807;-73
2021/09/06 07:09:17;;;;;;;11.65;3.60;;;18.80;56.60;;;;;;4988333;28;98012;-74
2021/09/06 07:11:49;;;;;;;9.70;3.67;;;18.80;56.10;;;;;;4985128;28;96729;-74
2021/09/06 07:14:20;;;;;;;8.50;2.97;;;18.80;56.20;;;;;;4982744;28;96177;-75
2021/09/06 07:16:51;;;;;;;13.90;4.35;;;18.80;56.70;;;;;;4977376;28;95727;-72
2021/09/06 07:19:22;;;;;;;12.88;6.35;;;18.80;56.90;;;;;;4979874;28;99747;-76
2021/09/06 07:21:53;;;;;;;16.50;5.85;;;18.80;57.10;;;;;;4986432;28;97177;-74
2021/09/06 07:24:28;;;;;;;12.35;5.00;;;18.80;57.70;;;;;;4985723;28;95297;-76
2021/09/06 07:27:00;;;;;;;10.75;5.55;;;18.80;58.10;;;;;;4984903;28;95848;-76
2021/09/06 07:29:30;;;;;;;13.55;5.00;;;18.90;57.90;;;;;;4983570;28;98245;-76
2021/09/06 07:32:02;;;;;;;12.13;4.88;;;19.00;58.10;;;;;;4979486;28;96448;-74
2021/09/06 07:34:35;;;;;;;24.55;6.22;;;19.00;58.00;;;;;;5002465;28;95838;-75
2021/09/06 07:37:07;;;;;;;11.93;5.00;;;19.00;58.30;;;;;;5005631;28;95660;-74
2021/09/06 07:39:38;;;;;;;8.15;4.15;;;19.00;58.90;;;;;;5004987;28;96120;-76
2021/09/06 07:42:08;;;;;;;7.50;5.20;;;19.00;58.20;;;;;;5002874;28;97940;-74
2021/09/06 07:44:39;;;;;;;10.05;4.68;;;19.00;58.30;;;;;;5005295;28;95725;-75
2021/09/06 07:47:09;;;;;;;6.82;4.13;;;19.00;58.50;;;;;;4998953;28;97924;-74
2021/09/06 07:49:41;;;;;;;9.32;4.30;;;19.00;58.40;;;;;;5006990;28;98323;-75
2021/09/06 07:52:13;;;;;;;9.18;4.38;;;19.00;58.50;;;;;;5005126;28;97787;-74
2021/09/06 07:54:48;;;;;;;9.65;4.40;;;19.00;58.50;;;;;;5005873;28;95220;-73
2021/09/06 07:57:20;;;;;;;10.20;3.95;;;19.00;58.60;;;;;;5008221;28;95800;-73
2021/09/06 07:59:52;;;;;;;6.65;3.60;;;19.10;59.40;;;;;;5004495;28;98032;-73
2021/09/06 08:02:24;;;;;;;8.13;3.75;;;19.10;58.80;;;;;;4992101;28;95484;-73
2021/09/06 08:04:55;;;;;;;7.78;3.83;;;19.10;58.90;;;;;;4996515;28;95655;-73
2021/09/06 08:07:26;;;;;;;6.93;4.22;;;19.00;58.90;;;;;;4993923;28;95791;-72
2021/09/06 08:09:57;;;;;;;6.60;3.92;;;19.00;58.90;;;;;;4992713;28;99233;-73
2021/09/06 08:12:29;;;;;;;7.82;3.63;;;19.00;59.00;;;;;;4993660;28;95771;-73
2021/09/06 08:15:00;;;;;;;7.45;3.50;;;19.00;59.10;;;;;;4992178;28;95443;-71
2021/09/06 08:17:36;;;;;;;6.07;3.53;;;19.00;59.10;;;;;;4995515;28;96510;-73
2021/09/06 08:20:14;;;;;;;6.53;3.80;;;19.00;59.30;;;;;;4995205;28;96066;-73
2021/09/06 08:22:47;;;;;;;6.57;3.65;;;19.00;59.40;;;;;;4991384;28;95721;-72
2021/09/06 08:25:19;;;;;;;7.10;3.40;;;19.00;59.50;;;;;;5003380;28;95857;-72
2021/09/06 08:27:50;;;;;;;6.78;3.58;;;19.00;59.50;;;;;;4999743;28;95913;-74
2021/09/06 08:30:20;;;;;;;6.93;3.65;;;19.00;59.50;;;;;;4993811;28;97084;-74
2021/09/06 08:32:51;;;;;;;6.70;3.15;;;19.00;59.70;;;;;;5000502;28;97911;-73
2021/09/06 08:35:21;;;;;;;5.68;3.20;;;19.00;59.70;;;;;;4999764;28;95812;-73
2021/09/06 08:37:53;;;;;;;5.85;3.30;;;19.00;59.70;;;;;;5016750;28;95517;-74
2021/09/06 08:40:24;;;;;;;4.90;3.15;;;18.90;59.80;;;;;;5004562;28;96065;-73
2021/09/06 08:42:56;;;;;;;7.50;3.72;;;18.90;59.80;;;;;;5001502;28;96252;-73
2021/09/06 08:45:27;;;;;;;5.70;3.33;;;18.90;59.90;;;;;;5000679;28;95369;-75
2021/09/06 08:47:57;;;;;;;5.43;3.50;;;18.90;60.50;;;;;;5006372;28;95763;-75
2021/09/06 08:50:34;;;;;;;3.97;3.10;;;18.90;60.00;;;;;;4992752;28;98200;-73
2021/09/06 08:53:07;;;;;;;8.32;3.70;;;18.90;60.60;;;;;;5009142;28;95775;-74
2021/09/06 08:55:41;;;;;;;6.88;3.58;;;18.90;60.10;;;;;;5024307;28;96366;-74
2021/09/06 08:58:35;;;;;;;5.75;3.78;;;18.90;60.20;;;;;;5003680;28;95998;-73
2021/09/06 09:01:07;;;;;;;3.55;2.72;;;18.90;60.20;;;;;;4994616;28;98706;-73
2021/09/06 09:04:26;;;;;;;4.40;2.88;;;18.80;60.30;;;;;;4985019;28;95653;-73
2021/09/06 09:07:31;;;;;;;4.75;2.75;;;18.80;60.30;;;;;;4998840;28;95864;-74
2021/09/06 09:10:38;;;;;;;5.60;3.50;;;18.80;60.40;;;;;;4961940;28;95444;-74
2021/09/06 09:13:40;;;;;;;4.85;3.08;;;18.70;60.50;;;;;;4976579;28;96132;-73
2021/09/06 09:16:31;;;;;;;6.60;3.28;;;18.80;60.60;;;;;;4982163;28;95895;-72
2021/09/06 09:19:35;;;;;;;4.57;2.75;;;18.70;60.60;;;;;;4996929;28;95846;-73
2021/09/06 09:22:36;;;;;;;4.38;2.90;;;18.70;60.70;;;;;;5003685;28;95290;-73
2021/09/06 09:25:26;;;;;;;3.63;2.60;;;18.70;60.80;;;;;;5003807;28;95596;-72
2021/09/06 09:28:30;;;;;;;5.50;3.50;;;18.70;60.80;;;;;;4999913;28;95874;-72
2021/09/06 09:31:23;;;;;;;5.25;3.13;;;18.70;60.90;;;;;;4998956;28;95843;-73
2021/09/06 09:34:11;;;;;;;5.43;3.10;;;18.70;61.10;;;;;;5003858;28;95965;-72
2021/09/06 09:37:02;;;;;;;5.15;2.63;;;18.70;61.00;;;;;;5002330;28;97649;-73
2021/09/06 09:39:34;;;;;;;4.95;3.05;;;18.60;61.20;;;;;;5006383;28;96288;-72
2021/09/06 09:42:12;;;;;;;5.22;3.10;;;18.60;61.10;;;;;;5003881;28;96318;-72
2021/09/06 09:44:53;;;;;;;6.00;2.88;;;18.60;61.90;;;;;;5007564;28;95702;-73
2021/09/06 09:47:54;;;;;;;3.65;2.95;;;18.60;61.30;;;;;;5007024;28;95590;-73
2021/09/06 09:50:30;;;;;;;5.25;2.97;;;18.60;61.30;;;;;;5003195;28;97094;-73
2021/09/06 09:53:08;;;;;;;5.32;3.42;;;18.60;61.40;;;;;;5007611;28;95735;-73
2021/09/06 09:55:41;;;;;;;5.22;3.00;;;18.60;61.50;;;;;;5003748;28;95328;-74
2021/09/06 09:58:16;;;;;;;3.72;2.85;;;18.50;61.50;;;;;;5005546;28;96244;-74
2021/09/06 10:00:46;;;;;;;4.43;2.78;;;18.50;61.50;;;;;;4993607;28;96401;-74
2021/09/06 10:03:25;;;;;;;5.25;3.10;;;18.50;61.50;;;;;;4986768;28;96584;-73
2021/09/06 10:05:58;;;;;;;4.22;2.97;;;18.50;61.50;;;;;;4985488;28;96192;-74
2021/09/06 10:08:30;;;;;;;4.15;2.85;;;18.50;61.60;;;;;;4981721;28;96717;-73
2021/09/06 10:11:12;;;;;;;4.40;2.80;;;18.40;61.60;;;;;;4986732;28;96128;-73
2021/09/06 10:13:44;;;;;;;5.57;3.10;;;18.40;61.60;;;;;;4982392;28;96221;-72
2021/09/06 10:16:30;;;;;;;5.05;3.17;;;18.40;61.60;;;;;;4975323;28;95392;-72
2021/09/06 10:19:08;;;;;;;4.43;3.15;;;18.40;61.60;;;;;;4973257;28;97772;-73
2021/09/06 10:21:44;;;;;;;5.03;3.05;;;18.40;61.70;;;;;;4985148;28;96448;-73
2021/09/06 10:24:20;;;;;;;5.53;3.72;;;18.40;61.70;;;;;;4984906;28;95844;-72
2021/09/06 10:27:02;;;;;;;6.25;3.60;;;18.30;61.60;;;;;;4984367;28;95578;-73
2021/09/06 10:29:34;;;;;;;5.78;3.85;;;18.40;61.70;;;;;;4993524;28;97926;-72
2021/09/06 10:32:05;;;;;;;5.20;3.88;;;18.30;61.50;;;;;;4991691;28;97167;-73
2021/09/06 10:34:38;;;;;;;6.65;4.00;;;18.30;61.60;;;;;;4997470;28;95286;-72
2021/09/06 10:37:09;;;;;;;5.22;4.22;;;18.20;61.60;;;;;;4989446;28;95410;-73
2021/09/06 10:39:47;;;;;;;5.77;4.57;;;18.20;61.70;;;;;;4994484;28;97361;-72
2021/09/06 10:42:17;;;;;;;7.47;4.20;;;18.20;61.80;;;;;;4994874;28;95898;-72
2021/09/06 10:44:58;;;;;;;6.95;4.13;;;18.10;61.90;;;;;;4997925;28;95611;-73
2021/09/06 10:47:37;;;;;;;6.35;4.63;;;18.10;61.90;;;;;;4986740;28;97796;-71
2021/09/06 10:50:22;;;;;;;6.97;4.35;;;18.10;61.80;;;;;;4998633;28;95862;-73
2021/09/06 10:53:06;;;;;;;6.80;4.45;;;18.00;61.90;;;;;;4997326;28;95452;-73
2021/09/06 10:55:37;;;;;;;8.05;4.88;;;18.00;62.20;;;;;;4975734;28;95783;-74
2021/09/06 10:58:12;;;;;;;7.40;4.53;;;18.00;62.20;;;;;;4995443;28;95444;-72
2021/09/06 11:00:52;;;;;;;6.50;5.18;;;18.00;62.20;;;;;;4990263;28;98288;-73
2021/09/06 11:03:28;;;;;;;8.27;4.53;;;17.90;62.10;;;;;;5015780;28;95684;-70
2021/09/06 11:06:03;;;;;;;7.28;5.63;;;17.90;62.20;;;;;;5014209;28;95685;-73
2021/09/06 11:08:38;;;;;;;8.05;5.38;;;17.90;62.30;;;;;;5004111;28;95853;-73
2021/09/06 11:11:10;;;;;;;9.65;5.40;;;17.80;62.20;;;;;;5013346;28;97882;-72
2021/09/06 11:13:46;;;;;;;6.35;4.55;;;17.80;62.30;;;;;;5014992;28;95466;-74
2021/09/06 11:16:19;;;;;;;7.65;5.38;;;17.70;62.30;;;;;;5006794;28;100534;-73
2021/09/06 11:18:52;;;;;;;7.50;5.15;;;17.70;62.30;;;;;;4996661;28;95955;-73
2021/09/06 11:21:25;;;;;;;8.43;6.47;;;17.70;62.30;;;;;;5012496;28;95877;-72
2021/09/06 11:23:56;;;;;;;9.05;6.50;;;17.70;62.30;;;;;;5012591;28;96552;-73
2021/09/06 11:26:33;;;;;;;8.80;5.80;;;17.60;62.40;;;;;;5008406;28;95998;-73
2021/09/06 11:29:06;;;;;;;10.77;6.45;;;17.60;62.40;;;;;;5011419;28;95642;-75
2021/09/06 11:31:37;;;;;;;8.82;6.68;;;17.50;62.40;;;;;;5004154;28;96121;-73
2021/09/06 11:34:09;;;;;;;10.23;6.47;;;17.50;62.50;;;;;;4981377;28;98905;-72
2021/09/06 11:36:40;;;;;;;8.43;5.82;;;17.50;63.00;;;;;;5014634;28;95976;-72
2021/09/06 11:39:10;;;;;;;9.13;6.40;;;17.50;63.40;;;;;;4997635;28;95641;-72
2021/09/06 11:41:41;;;;;;;8.82;6.80;;;17.50;63.70;;;;;;4995236;28;98365;-72
2021/09/06 11:44:11;;;;;;;8.70;6.53;;;17.50;64.10;;;;;;4993109;28;96236;-72
2021/09/06 11:46:43;;;;;;;9.77;6.70;;;17.50;64.10;;;;;;4995213;28;95799;-73
2021/09/06 11:49:18;;;;;;;8.30;6.63;;;17.60;64.30;;;;;;5006618;28;97573;-76
2021/09/06 11:51:49;;;;;;;9.93;6.25;;;17.60;64.50;;;;;;5005567;28;95834;-74
2021/09/06 11:54:22;;;;;;;7.80;5.63;;;17.70;64.80;;;;;;5004284;28;95446;-76
2021/09/06 11:56:59;;;;;;;8.15;5.80;;;17.70;64.50;;;;;;5002945;28;95655;-72
2021/09/06 11:59:31;;;;;;;7.35;5.78;;;17.60;64.40;;;;;;5000841;28;95267;-74
2021/09/06 12:02:14;;;;;;;7.00;5.43;;;17.70;64.40;;;;;;4997944;28;96445;-75
2021/09/06 12:04:46;;;;;;;7.95;6.22;;;17.70;64.40;;;;;;5001835;28;96253;-74
2021/09/06 12:07:21;;;;;;;7.50;5.75;;;17.70;64.30;;;;;;5015164;28;95321;-73
2021/09/06 12:09:53;;;;;;;7.63;5.72;;;17.60;64.20;;;;;;5001315;28;97617;-75
2021/09/06 12:12:26;;;;;;;7.15;5.20;;;17.70;64.30;;;;;;5017784;28;96753;-73
2021/09/06 12:14:56;;;;;;;8.77;6.05;;;17.60;64.10;;;;;;5029931;28;95744;-74
2021/09/06 12:17:36;;;;;;;7.65;5.47;;;17.70;64.20;;;;;;4980755;28;95395;-73
2021/09/06 12:20:09;;;;;;;7.63;5.78;;;17.70;64.10;;;;;;5004107;28;96621;-73
2021/09/06 12:22:40;;;;;;;7.15;5.57;;;17.70;64.10;;;;;;5030860;28;95904;-73
2021/09/06 12:25:10;;;;;;;7.50;5.68;;;17.60;64.00;;;;;;5029599;28;99322;-74
2021/09/06 12:27:40;;;;;;;7.05;5.80;;;17.60;64.00;;;;;;5013280;28;98418;-74
2021/09/06 12:30:10;;;;;;;7.15;5.53;;;17.60;64.00;;;;;;5009882;28;95794;-73
2021/09/06 12:32:41;;;;;;;8.43;6.00;;;17.60;64.00;;;;;;5032476;28;97855;-73
2021/09/06 12:35:13;;;;;;;8.07;5.60;;;17.70;64.00;;;;;;5033684;28;95700;-73
2021/09/06 12:37:45;;;;;;;6.93;5.95;;;17.60;63.90;;;;;;5034245;28;96034;-74
2021/09/06 12:40:15;;;;;;;6.75;5.15;;;17.60;64.00;;;;;;5030745;28;95794;-73
2021/09/06 12:42:49;;;;;;;7.18;5.85;;;17.70;63.90;;;;;;5007767;28;99421;-73
2021/09/06 12:45:19;;;;;;;5.88;4.85;;;17.60;63.90;;;;;;5029204;28;97072;-74
2021/09/06 12:47:49;;;;;;;6.60;5.33;;;17.60;64.00;;;;;;5013552;28;96815;-74
2021/09/06 12:50:24;;;;;;;6.05;4.97;;;17.60;63.90;;;;;;4999320;28;96032;-74
2021/09/06 12:52:56;;;;;;;8.02;6.20;;;17.60;63.90;;;;;;5034220;28;95290;-75
2021/09/06 12:55:26;;;;;;;;;;;17.60;63.80;;;;;;5033312;28;96964;-73
2021/09/06 12:58:02;;;;;;;8.82;6.40;;;17.60;63.90;;;;;;5010339;28;95847;-73
2021/09/06 13:00:33;;;;;;;9.35;6.18;;;17.60;63.80;;;;;;5011783;28;95850;-73
2021/09/06 13:03:04;;;;;;;8.52;6.03;;;17.60;63.90;;;;;;5032689;28;95883;-75
2021/09/06 13:05:37;;;;;;;9.00;6.65;;;17.60;63.90;;;;;;5010684;28;95727;-76
2021/09/06 13:08:08;;;;;;;9.20;6.65;;;17.50;63.80;;;;;;5012077;28;95984;-74
2021/09/06 13:10:40;;;;;;;6.78;5.93;;;17.60;63.80;;;;;;5013012;28;95742;-73
2021/09/06 13:13:11;;;;;;;;;;;17.60;63.80;;;;;;5031692;28;95768;-73
2021/09/06 13:15:41;;;;;;;8.07;6.18;;;17.50;63.80;;;;;;5029401;28;95783;-73
2021/09/06 13:18:13;;;;;;;10.13;7.15;;;17.60;63.80;;;;;;5000919;27;96563;-74
2021/09/06 13:20:44;;;;;;;7.75;6.15;;;17.60;63.80;;;;;;5009514;28;96087;-74
2021/09/06 13:23:14;;;;;;;9.48;6.95;;;17.50;63.80;;;;;;5032230;28;95936;-74